Richard B Russell Airport
KRMG : now visible

Airfield :











YOU CAN JOIN US ON...

 
LOGIN :

Register | Disclaimer

   EN    FR    IT 

 









Legend :    VFR   Marginal VFR   IFR   Intensive IFR   Very Intensive IFR
Visi :
Ceiling :
>= 8 km
>= 3000ft
5 to 8 km
1000 to 3000 ft
1500m to 5 km
500 to 1000 ft
800 to 1500m
200 to 500 ft
< 800m
< 200 ft
Symbols :   Thunderstorms  Fog  Heavy snow  Heavy precipitations  Wind > 20 kt






- Airport Elevation : 644 ft


KRMG - Richard B Russell

CURRENT METAR :
  • 271653Z AUTO VRB04KT 10SM SCT025 28/19 A2996 RMK AO2 SLP135 T02780194

EXPIRED METARs :
  • 271633Z AUTO 17007KT 10SM SCT027 27/19 A2996 RMK AO2 T02670194
  • 271608Z AUTO 10SM SCT019 26/20 A2997 RMK AO2 T02610200
  • 271553Z AUTO 10SM BKN018 26/20 A2997 RMK AO2 SLP140 T02610200
  • 271453Z AUTO VRB03KT 10SM SCT011 24/20 A2998 RMK AO2 SLP145 60002 T02440200 58003

TAF N/A
KZTL FIR / North America



MET'MAP, your aeronautical weather chart ! - Copyright ORBIFLY December 2007 - Disclaimer

ORBIFLY MET'MAP TEAM :

Programming & Development : Alexandra Zaïnal
Concept & original design : Baudouin d'Aumeries
Assistance for programming : Marc-Olivier Méhu
Technical & hardware support : Manuel Goepfert

Contact : metmap@orbifly.com




SOURCES & CREDITS :

   NOAA       Earth
Advisory